createdAt,value
2023-03-31T00:00:56.443Z,99853.13
2023-03-31T00:03:36.474Z,99840.78
2023-03-31T00:06:27.137Z,99835.50
2023-03-31T00:09:04.263Z,99834.47
2023-03-31T00:11:36.257Z,99843.25
2023-03-31T00:14:16.698Z,99838.91
2023-03-31T00:16:51.135Z,99841.66
2023-03-31T00:19:35.708Z,99838.03
2023-03-31T00:22:14.586Z,99842.38
2023-03-31T00:24:47.717Z,99842.38
2023-03-31T00:27:18.277Z,99852.25
2023-03-31T00:30:07.529Z,99859.28
2023-03-31T00:32:47.854Z,99856.50
2023-03-31T00:35:22.055Z,99857.31
2023-03-31T00:38:04.324Z,99860.03
2023-03-31T00:40:37.606Z,99858.41
2023-03-31T00:43:30.946Z,99858.16
2023-03-31T00:46:10.377Z,99862.63
2023-03-31T00:48:54.934Z,99858.06
2023-03-31T00:51:32.541Z,99864.50
2023-03-31T00:54:10.051Z,99867.19
2023-03-31T00:56:44.975Z,99869.88
2023-03-31T00:59:29.700Z,99868.97
2023-03-31T01:02:06.281Z,99866.50
2023-03-31T01:04:45.860Z,99870.00
2023-03-31T01:07:24.551Z,99864.78
2023-03-31T01:10:02.394Z,99863.13
2023-03-31T01:12:42.796Z,99862.34
2023-03-31T01:15:27.387Z,99874.63
2023-03-31T01:18:16.722Z,99881.75
2023-03-31T01:21:18.003Z,99886.16
2023-03-31T01:24:08.434Z,99878.22
2023-03-31T01:26:59.385Z,99880.78
2023-03-31T01:29:58.415Z,99876.41
2023-03-31T01:32:49.108Z,99868.53
2023-03-31T01:35:43.408Z,99869.28
2023-03-31T01:38:45.503Z,99875.38
2023-03-31T01:41:36.613Z,99869.19
2023-03-31T01:44:37.025Z,99876.28
2023-03-31T01:47:16.633Z,99872.84
2023-03-31T01:50:02.682Z,99870.16
2023-03-31T01:52:45.214Z,99864.78
2023-03-31T01:55:45.915Z,99866.63
2023-03-31T01:58:44.185Z,99859.59
2023-03-31T02:01:31.488Z,99866.59
2023-03-31T02:04:15.423Z,99867.56
2023-03-31T02:07:02.194Z,99870.25
2023-03-31T02:09:41.404Z,99863.25
2023-03-31T02:12:14.012Z,99857.09
2023-03-31T02:14:55.385Z,99852.59
2023-03-31T02:17:40.687Z,99847.34
2023-03-31T02:20:19.104Z,99848.31
2023-03-31T02:23:06.273Z,99845.00
2023-03-31T02:25:47.595Z,99845.94
2023-03-31T02:28:37.266Z,99844.19
2023-03-31T02:31:30.223Z,99851.22
2023-03-31T02:34:17.893Z,99838.81
2023-03-31T02:37:02.817Z,99841.41
2023-03-31T02:39:39.998Z,99844.88
2023-03-31T02:42:11.385Z,99840.53
2023-03-31T02:44:51.204Z,99832.59
2023-03-31T02:47:31.445Z,99829.91
2023-03-31T02:50:17.857Z,99828.22
2023-03-31T02:53:01.368Z,99816.00
2023-03-31T02:56:07.309Z,99814.38
2023-03-31T02:58:55.877Z,99820.53
2023-03-31T03:01:41.813Z,99824.97
2023-03-31T03:04:34.776Z,99825.88
2023-03-31T03:07:30.528Z,99834.69
2023-03-31T03:10:21.142Z,99829.38
2023-03-31T03:13:00.487Z,99826.78
2023-03-31T03:18:45.578Z,99830.38
2023-03-31T03:21:33.143Z,99824.28
2023-03-31T03:24:06.619Z,99822.56
2023-03-31T03:26:53.836Z,99820.91
2023-03-31T03:29:32.639Z,99819.09
2023-03-31T03:32:21.557Z,99830.63
2023-03-31T03:34:54.354Z,99828.84
2023-03-31T03:37:32.698Z,99824.47
2023-03-31T03:40:16.070Z,99824.47
2023-03-31T03:43:08.338Z,99822.69
2023-03-31T03:46:01.323Z,99834.97
2023-03-31T03:49:01.573Z,99824.44
2023-03-31T03:52:28.309Z,99815.63
2023-03-31T03:55:51.726Z,99821.81
2023-03-31T03:58:45.305Z,99821.94
2023-03-31T04:02:06.149Z,99820.41
2023-03-31T04:05:00.558Z,99813.38
2023-03-31T04:14:21.546Z,99802.75
2023-03-31T04:21:06.058Z,99801.94
2023-03-31T04:23:47.912Z,99797.47
2023-03-31T04:26:39.651Z,99789.56
2023-03-31T04:29:37.858Z,99794.91
2023-03-31T04:32:23.820Z,99796.63
2023-03-31T04:35:05.560Z,99790.38
2023-03-31T04:37:46.061Z,99793.84
2023-03-31T04:41:02.985Z,99792.09
2023-03-31T04:43:43.640Z,99778.75
2023-03-31T04:46:28.849Z,99771.66
2023-03-31T04:49:03.398Z,99773.31
2023-03-31T04:51:48.219Z,99776.84
2023-03-31T04:54:38.008Z,99774.88
2023-03-31T04:57:19.760Z,99771.25
2023-03-31T04:59:57.916Z,99751.84
2023-03-31T05:02:45.665Z,99752.72
2023-03-31T05:05:32.658Z,99756.00
2023-03-31T05:08:14.376Z,99763.88
2023-03-31T05:10:51.934Z,99757.72
2023-03-31T05:14:19.520Z,99759.50
2023-03-31T05:17:25.608Z,99746.13
2023-03-31T05:20:07.648Z,99746.13
2023-03-31T05:22:55.179Z,99754.03
2023-03-31T05:25:39.615Z,99753.06
2023-03-31T05:28:45.121Z,99753.94
2023-03-31T05:31:32.028Z,99758.19
2023-03-31T05:34:26.359Z,99758.22
2023-03-31T05:37:13.484Z,99748.53
2023-03-31T05:40:04.526Z,99746.75
2023-03-31T05:43:01.571Z,99756.44
2023-03-31T05:45:59.793Z,99756.44
2023-03-31T05:48:58.296Z,99747.56
2023-03-31T05:51:58.711Z,99752.88
2023-03-31T05:55:05.794Z,99757.16
2023-03-31T05:58:10.691Z,99751.00
2023-03-31T06:01:27.867Z,99755.28
2023-03-31T06:04:15.216Z,99750.81
2023-03-31T06:07:14.007Z,99744.56
2023-03-31T06:10:08.747Z,99736.47
2023-03-31T06:12:52.917Z,99743.38
2023-03-31T06:15:39.896Z,99733.47
2023-03-31T06:18:20.047Z,99738.59
2023-03-31T06:21:18.974Z,99738.50
2023-03-31T06:24:17.146Z,99736.66
2023-03-31T06:26:59.577Z,99738.38
2023-03-31T06:29:29.776Z,99738.41
2023-03-31T06:32:07.880Z,99737.47
2023-03-31T06:35:01.789Z,99731.38
2023-03-31T06:37:38.857Z,99739.31
2023-03-31T06:40:15.051Z,99741.97
2023-03-31T06:43:04.662Z,99744.66
2023-03-31T06:45:42.112Z,99741.19
2023-03-31T06:48:23.654Z,99737.63
2023-03-31T06:51:00.936Z,99743.84
2023-03-31T06:53:51.263Z,99733.31
2023-03-31T06:56:32.968Z,99736.78
2023-03-31T06:59:18.776Z,99741.06
2023-03-31T07:01:59.786Z,99741.09
2023-03-31T07:04:38.721Z,99748.13
2023-03-31T07:07:34.128Z,99745.53
2023-03-31T07:10:34.392Z,99745.44
2023-03-31T07:13:16.862Z,99743.66
2023-03-31T07:16:11.825Z,99746.19
2023-03-31T07:18:55.917Z,99747.91
2023-03-31T07:21:32.725Z,99734.69
2023-03-31T07:24:11.830Z,99731.97
2023-03-31T07:27:06.961Z,99725.50
2023-03-31T07:29:46.854Z,99721.69
2023-03-31T07:32:20.758Z,99708.91
2023-03-31T07:34:58.816Z,99713.88
2023-03-31T07:37:36.602Z,99713.75
2023-03-31T07:40:11.006Z,99717.63
2023-03-31T07:42:56.346Z,99711.44
2023-03-31T07:45:29.651Z,99715.88
2023-03-31T07:48:23.516Z,99710.44
2023-03-31T07:50:56.892Z,99707.66
2023-03-31T07:53:46.553Z,99717.13
2023-03-31T07:57:01.676Z,99710.16
2023-03-31T07:59:33.657Z,99708.03
2023-03-31T08:02:04.027Z,99701.03
2023-03-31T08:04:36.519Z,99700.72
2023-03-31T08:07:07.958Z,99705.66
2023-03-31T08:09:38.635Z,99711.19
2023-03-31T08:12:12.714Z,99706.09
2023-03-31T08:14:46.633Z,99704.16
2023-03-31T08:17:23.001Z,99690.03
2023-03-31T08:19:56.540Z,99691.16
2023-03-31T08:22:27.141Z,99696.66
2023-03-31T08:25:04.085Z,99690.91
2023-03-31T08:27:36.157Z,99683.34
2023-03-31T08:30:07.038Z,99687.66
2023-03-31T08:32:41.648Z,99685.44
2023-03-31T08:35:13.933Z,99680.19
2023-03-31T08:37:44.340Z,99689.84
2023-03-31T08:40:16.946Z,99672.16
2023-03-31T08:42:48.956Z,99678.47
2023-03-31T08:45:22.602Z,99674.28
2023-03-31T08:47:55.491Z,99675.84
2023-03-31T08:50:29.931Z,99667.13
2023-03-31T08:53:04.466Z,99666.44
2023-03-31T08:55:39.533Z,99665.13
2023-03-31T08:58:15.257Z,99665.38
2023-03-31T09:00:48.899Z,99674.88
2023-03-31T09:03:25.445Z,99679.00
2023-03-31T09:06:02.255Z,99670.03
2023-03-31T09:08:38.394Z,99667.50
2023-03-31T09:11:12.535Z,99667.97
2023-03-31T09:13:54.366Z,99657.13
2023-03-31T09:16:30.669Z,99651.06
2023-03-31T09:19:01.947Z,99656.41
2023-03-31T09:21:35.622Z,99658.00
2023-03-31T09:24:09.830Z,99655.78
2023-03-31T09:26:42.565Z,99660.78
2023-03-31T09:29:19.087Z,99650.00
2023-03-31T09:31:50.830Z,99655.47
2023-03-31T09:34:30.441Z,99647.44
2023-03-31T09:37:02.513Z,99650.69
2023-03-31T09:39:33.122Z,99651.91
2023-03-31T09:42:03.897Z,99645.38
2023-03-31T09:44:38.772Z,99645.97
2023-03-31T09:47:12.946Z,99651.31
2023-03-31T09:49:54.156Z,99659.34
2023-03-31T09:52:32.331Z,99661.56
2023-03-31T09:55:02.592Z,99652.00
2023-03-31T09:57:34.613Z,99648.88
2023-03-31T10:00:13.977Z,99649.09
2023-03-31T10:02:46.019Z,99656.91
2023-03-31T10:05:30.605Z,99651.44
2023-03-31T10:08:24.307Z,99650.81
2023-03-31T10:10:55.798Z,99643.06
2023-03-31T10:13:29.624Z,99645.66
2023-03-31T10:16:04.869Z,99647.88
2023-03-31T10:18:36.437Z,99650.72
2023-03-31T10:21:07.311Z,99646.59
2023-03-31T10:23:47.920Z,99654.28
2023-03-31T10:26:20.222Z,99647.16
2023-03-31T10:28:53.063Z,99655.66
2023-03-31T10:31:26.516Z,99654.31
2023-03-31T10:33:59.014Z,99656.63
2023-03-31T10:36:32.117Z,99654.66
2023-03-31T10:39:07.594Z,99655.38
2023-03-31T10:41:41.682Z,99660.34
2023-03-31T10:44:33.436Z,99664.59
2023-03-31T10:47:08.417Z,99658.56
2023-03-31T10:49:40.230Z,99657.44
2023-03-31T10:52:17.970Z,99652.56
2023-03-31T10:54:51.866Z,99651.13
2023-03-31T10:57:26.839Z,99649.78
2023-03-31T11:00:13.497Z,99650.34
2023-03-31T11:03:04.323Z,99647.25
2023-03-31T11:05:37.949Z,99649.28
2023-03-31T11:08:25.307Z,99634.94
2023-03-31T11:11:05.105Z,99639.75
2023-03-31T11:13:40.234Z,99639.91
2023-03-31T11:16:19.267Z,99635.75
2023-03-31T11:19:03.908Z,99642.91
2023-03-31T11:21:39.877Z,99633.91
2023-03-31T11:24:18.772Z,99641.22
2023-03-31T11:26:56.531Z,99638.06
2023-03-31T11:29:36.697Z,99633.00
2023-03-31T11:32:17.877Z,99629.22
2023-03-31T11:34:57.751Z,99623.03
2023-03-31T11:37:42.038Z,99626.59
2023-03-31T11:40:19.300Z,99622.19
2023-03-31T11:42:54.169Z,99621.78
2023-03-31T11:45:28.149Z,99624.88
2023-03-31T11:48:05.593Z,99625.63
2023-03-31T11:50:44.501Z,99624.19
2023-03-31T11:53:19.717Z,99629.03
2023-03-31T11:55:53.037Z,99609.88
2023-03-31T11:58:32.104Z,99604.34
2023-03-31T12:01:07.978Z,99603.00
2023-03-31T12:03:41.881Z,99591.50
2023-03-31T12:06:17.718Z,99588.38
2023-03-31T12:08:52.148Z,99596.72
2023-03-31T12:11:28.198Z,99583.16
2023-03-31T12:14:04.768Z,99578.31
2023-03-31T12:16:37.846Z,99573.94
2023-03-31T12:19:13.167Z,99581.91
2023-03-31T12:21:50.807Z,99576.28
2023-03-31T12:24:22.198Z,99576.03
2023-03-31T12:26:59.740Z,99568.88
2023-03-31T12:29:33.978Z,99568.00
2023-03-31T12:32:07.811Z,99567.25
2023-03-31T12:34:43.779Z,99573.94
2023-03-31T12:37:27.560Z,99573.88
2023-03-31T12:40:03.041Z,99563.16
2023-03-31T12:42:49.066Z,99554.03
2023-03-31T12:45:27.501Z,99561.72
2023-03-31T12:48:12.436Z,99560.94
2023-03-31T12:51:00.927Z,99561.00
2023-03-31T12:53:35.292Z,99567.81
2023-03-31T12:56:07.138Z,99556.69
2023-03-31T12:58:42.171Z,99544.16
2023-03-31T13:01:30.887Z,99541.47
2023-03-31T13:04:12.403Z,99541.22
2023-03-31T13:07:09.532Z,99535.75
2023-03-31T13:09:49.188Z,99538.56
2023-03-31T13:12:25.417Z,99545.66
2023-03-31T13:21:12.897Z,99547.38
2023-03-31T13:23:48.700Z,99559.31
2023-03-31T13:26:37.017Z,99551.78
2023-03-31T13:29:24.348Z,99549.88
2023-03-31T13:32:12.978Z,99552.75
2023-03-31T13:34:51.322Z,99539.97
2023-03-31T13:37:33.438Z,99537.50
2023-03-31T13:40:19.777Z,99534.59
2023-03-31T13:43:01.109Z,99531.16
2023-03-31T13:45:45.132Z,99527.97
2023-03-31T13:48:34.716Z,99533.81
2023-03-31T13:51:30.174Z,99527.63
2023-03-31T13:54:11.406Z,99521.72
2023-03-31T13:56:57.174Z,99520.78
2023-03-31T13:59:42.144Z,99515.41
2023-03-31T14:03:03.771Z,99510.56
2023-03-31T14:09:39.537Z,99506.13
2023-03-31T14:12:56.237Z,99517.78
2023-03-31T14:15:37.864Z,99520.44
2023-03-31T14:18:22.208Z,99520.63
2023-03-31T14:21:14.134Z,99522.06
2023-03-31T14:24:29.271Z,99540.00
2023-03-31T14:27:40.719Z,99542.91
2023-03-31T14:30:54.151Z,99538.34
2023-03-31T14:34:04.613Z,99538.28
2023-03-31T14:37:05.520Z,99545.69
2023-03-31T14:40:31.468Z,99547.47
2023-03-31T14:44:03.257Z,99541.19
2023-03-31T15:29:48.135Z,99513.13
2023-03-31T15:33:18.428Z,99511.44
2023-03-31T15:36:55.805Z,99507.13
2023-03-31T15:43:44.564Z,99495.03
2023-03-31T15:51:06.026Z,99494.34
2023-03-31T15:54:15.288Z,99496.19
2023-03-31T15:58:07.785Z,99499.00
2023-03-31T16:02:05.046Z,99500.84
2023-03-31T16:06:42.316Z,99502.91
2023-03-31T16:10:02.657Z,99499.56
2023-03-31T16:13:11.546Z,99501.59
2023-03-31T16:17:06.690Z,99500.75
2023-03-31T16:23:48.676Z,99501.16
2023-03-31T16:26:24.002Z,99501.19
2023-03-31T16:28:55.361Z,99503.13
2023-03-31T16:31:36.848Z,99497.78
2023-03-31T16:34:07.934Z,99496.38
2023-03-31T16:36:37.896Z,99488.59
2023-03-31T16:39:09.368Z,99487.88
2023-03-31T16:41:40.177Z,99484.19
2023-03-31T16:44:12.148Z,99483.34
2023-03-31T16:46:46.500Z,99478.34
2023-03-31T16:49:19.731Z,99481.06
2023-03-31T16:51:50.850Z,99487.59
2023-03-31T16:54:21.587Z,99492.00
2023-03-31T16:56:53.908Z,99491.88
2023-03-31T17:04:16.381Z,99507.81
2023-03-31T17:10:54.386Z,99519.25
2023-03-31T17:13:25.264Z,99522.72
2023-03-31T17:16:04.682Z,99514.16
2023-03-31T17:18:47.462Z,99515.94
2023-03-31T17:21:22.417Z,99520.34
2023-03-31T17:23:54.208Z,99515.94
2023-03-31T17:26:28.493Z,99514.19
2023-03-31T17:28:58.293Z,99519.50
2023-03-31T17:31:31.499Z,99523.09
2023-03-31T17:34:06.518Z,99514.34
2023-03-31T17:36:45.172Z,99515.19
2023-03-31T17:39:16.913Z,99514.50
2023-03-31T17:41:48.035Z,99514.47
2023-03-31T17:44:18.758Z,99518.75
2023-03-31T17:46:49.655Z,99522.16
2023-03-31T17:49:19.636Z,99515.94
2023-03-31T17:51:51.494Z,99519.53
2023-03-31T17:54:22.550Z,99519.63
2023-03-31T17:56:56.130Z,99518.75
2023-03-31T17:59:28.327Z,99516.25
2023-03-31T18:02:02.142Z,99515.38
2023-03-31T18:04:34.963Z,99523.56
2023-03-31T18:07:09.210Z,99519.88
2023-03-31T18:09:46.468Z,99513.94
2023-03-31T18:12:20.961Z,99512.38
2023-03-31T18:14:55.373Z,99516.03
2023-03-31T18:17:30.728Z,99521.47
2023-03-31T18:20:04.424Z,99526.81
2023-03-31T18:22:38.931Z,99517.19
2023-03-31T18:25:13.136Z,99523.28
2023-03-31T18:27:48.535Z,99514.66
2023-03-31T18:30:21.184Z,99518.31
2023-03-31T18:32:55.758Z,99515.59
2023-03-31T18:35:29.340Z,99517.38
2023-03-31T18:38:04.395Z,99517.34
2023-03-31T18:40:37.055Z,99517.34
2023-03-31T18:43:12.096Z,99516.59
2023-03-31T18:45:43.235Z,99513.13
2023-03-31T18:48:24.171Z,99513.16
2023-03-31T18:50:55.934Z,99502.56
2023-03-31T18:53:31.677Z,99502.56
2023-03-31T18:56:04.492Z,99506.22
2023-03-31T18:58:39.038Z,99507.06
2023-03-31T19:01:12.078Z,99507.00
2023-03-31T19:03:49.011Z,99511.50
2023-03-31T19:06:23.223Z,99508.94
2023-03-31T19:09:00.924Z,99500.97
2023-03-31T19:11:34.221Z,99501.03
2023-03-31T19:14:07.281Z,99498.53
2023-03-31T19:16:42.697Z,99494.94
2023-03-31T19:19:12.865Z,99505.44
2023-03-31T19:21:45.921Z,99495.78
2023-03-31T19:24:27.886Z,99500.31
2023-03-31T19:26:59.644Z,99500.31
2023-03-31T19:29:40.260Z,99506.41
2023-03-31T19:32:19.724Z,99501.16
2023-03-31T19:35:05.057Z,99503.16
2023-03-31T19:37:36.315Z,99498.84
2023-03-31T19:40:19.634Z,99493.53
2023-03-31T19:42:52.184Z,99496.25
2023-03-31T19:45:23.947Z,99487.47
2023-03-31T19:48:06.558Z,99489.22
2023-03-31T19:50:40.174Z,99492.72
2023-03-31T19:53:10.207Z,99492.75
2023-03-31T19:55:57.999Z,99498.13
2023-03-31T19:58:31.110Z,99496.28
2023-03-31T20:01:02.508Z,99493.69
2023-03-31T20:03:33.356Z,99490.22
2023-03-31T20:06:12.269Z,99485.84
2023-03-31T20:08:43.216Z,99489.44
2023-03-31T20:11:19.440Z,99493.03
2023-03-31T20:13:53.104Z,99486.97
2023-03-31T20:16:26.931Z,99493.16
2023-03-31T20:19:02.460Z,99501.91
2023-03-31T20:21:35.141Z,99490.59
2023-03-31T20:24:07.286Z,99495.88
2023-03-31T20:26:39.194Z,99500.44
2023-03-31T20:29:11.092Z,99498.59
2023-03-31T20:31:44.130Z,99497.69
2023-03-31T20:34:17.003Z,99497.94
2023-03-31T20:36:49.488Z,99493.56
2023-03-31T20:39:20.112Z,99499.06
2023-03-31T20:41:52.145Z,99494.63
2023-03-31T20:44:22.924Z,99495.59
2023-03-31T20:46:55.216Z,99497.38
2023-03-31T20:49:25.015Z,99496.41
2023-03-31T20:51:55.058Z,99496.50
2023-03-31T20:54:24.885Z,99491.31
2023-03-31T20:56:56.719Z,99492.28
2023-03-31T20:59:27.404Z,99485.28
2023-03-31T21:01:58.379Z,99490.63
2023-03-31T21:04:28.988Z,99482.75
2023-03-31T21:07:00.627Z,99481.00
2023-03-31T21:09:32.418Z,99486.34
2023-03-31T21:12:05.504Z,99480.16
2023-03-31T21:34:09.203Z,99483.00
2023-03-31T21:37:23.995Z,99482.19
2023-03-31T21:40:02.319Z,99482.22
2023-03-31T21:45:37.621Z,99476.97
2023-03-31T21:48:29.976Z,99478.75
2023-03-31T21:54:59.072Z,99470.09
2023-03-31T21:58:11.300Z,99473.59
2023-03-31T22:01:56.482Z,99472.75
2023-03-31T22:05:01.552Z,99474.47
2023-03-31T22:11:54.602Z,99474.59
2023-03-31T22:22:11.573Z,99481.88
2023-03-31T22:25:18.734Z,99484.50
2023-03-31T22:28:00.860Z,99482.69
2023-03-31T22:30:32.504Z,99484.41
2023-03-31T22:33:02.877Z,99482.72
2023-03-31T22:35:32.871Z,99487.09
2023-03-31T22:38:04.012Z,99487.06
2023-03-31T22:40:35.348Z,99497.66
2023-03-31T22:43:05.589Z,99493.28
2023-03-31T22:45:39.260Z,99490.88
2023-03-31T22:48:10.265Z,99498.66
2023-03-31T22:50:41.409Z,99503.97
2023-03-31T22:53:12.105Z,99498.72
2023-03-31T22:55:54.366Z,99498.81
2023-03-31T22:58:25.030Z,99499.69
2023-03-31T23:00:59.499Z,99494.47
2023-03-31T23:03:29.839Z,99500.72
2023-03-31T23:06:03.046Z,99484.91
2023-03-31T23:08:33.692Z,99491.88
2023-03-31T23:11:03.631Z,99490.09
2023-03-31T23:13:33.818Z,99491.00
2023-03-31T23:16:08.719Z,99490.19
2023-03-31T23:18:44.508Z,99494.56
2023-03-31T23:21:14.801Z,99486.69
2023-03-31T23:23:44.867Z,99488.50
2023-03-31T23:26:16.171Z,99482.38
2023-03-31T23:28:48.516Z,99486.81
2023-03-31T23:31:20.229Z,99480.59
2023-03-31T23:33:50.530Z,99485.88
2023-03-31T23:36:21.583Z,99485.03
2023-03-31T23:38:52.720Z,99478.00
2023-03-31T23:41:23.076Z,99481.47
2023-03-31T23:43:53.473Z,99481.53
2023-03-31T23:46:26.370Z,99485.94
2023-03-31T23:48:56.663Z,99479.78
2023-03-31T23:51:26.481Z,99478.91
2023-03-31T23:53:56.721Z,99477.09
2023-03-31T23:56:27.641Z,99484.22
2023-03-31T23:58:57.751Z,99478.97
